createdAt,value
2019-06-10T00:00:36.165Z,991.68
2019-06-10T00:01:36.148Z,991.68
2019-06-10T00:02:36.138Z,991.74
2019-06-10T00:03:36.149Z,991.66
2019-06-10T00:04:36.116Z,991.54
2019-06-10T00:05:36.105Z,991.47
2019-06-10T00:06:36.094Z,991.48
2019-06-10T00:07:36.086Z,991.45
2019-06-10T00:08:36.084Z,991.44
2019-06-10T00:09:36.079Z,991.48
2019-06-10T00:10:36.051Z,991.45
2019-06-10T00:11:36.041Z,991.44
2019-06-10T00:12:36.030Z,991.44
2019-06-10T00:13:36.028Z,991.48
2019-06-10T00:14:36.016Z,991.41
2019-06-10T00:15:36.012Z,991.44
2019-06-10T00:16:35.991Z,991.42
2019-06-10T00:17:52.344Z,991.36
2019-06-10T00:18:42.193Z,991.33
2019-06-10T00:19:36.954Z,991.22
2019-06-10T00:20:35.942Z,991.05
2019-06-10T00:21:35.990Z,991.00
2019-06-10T00:22:35.919Z,990.86
2019-06-10T00:23:35.918Z,990.85
2019-06-10T00:24:35.899Z,990.85
2019-06-10T00:25:35.889Z,990.92
2019-06-10T00:26:35.881Z,990.96
2019-06-10T00:27:35.884Z,991.04
2019-06-10T00:28:35.858Z,991.16
2019-06-10T00:29:35.855Z,991.18
2019-06-10T00:30:35.832Z,991.13
2019-06-10T00:31:35.821Z,991.14
2019-06-10T00:32:35.809Z,991.09
2019-06-10T00:33:35.820Z,991.13
2019-06-10T00:34:35.799Z,991.16
2019-06-10T00:35:35.777Z,991.12
2019-06-10T00:36:35.765Z,991.10
2019-06-10T00:37:35.756Z,991.11
2019-06-10T00:38:35.742Z,991.22
2019-06-10T00:39:35.767Z,991.28
2019-06-10T00:40:35.724Z,991.38
2019-06-10T00:41:35.710Z,991.30
2019-06-10T00:42:35.705Z,991.30
2019-06-10T00:43:35.687Z,991.41
2019-06-10T00:44:35.687Z,991.50
2019-06-10T00:45:35.720Z,991.60
2019-06-10T00:46:35.655Z,991.65
2019-06-10T00:47:35.644Z,991.59
2019-06-10T00:48:35.632Z,991.72
2019-06-10T00:49:35.633Z,991.77
2019-06-10T00:50:35.609Z,991.80
2019-06-10T00:51:35.640Z,991.91
2019-06-10T00:52:35.587Z,991.89
2019-06-10T00:53:35.579Z,991.95
2019-06-10T00:54:35.578Z,991.79
2019-06-10T00:55:35.556Z,991.70
2019-06-10T00:56:35.544Z,991.61
2019-06-10T00:57:35.553Z,991.52
2019-06-10T00:58:35.524Z,991.40
2019-06-10T00:59:35.524Z,991.35
2019-06-10T01:00:35.500Z,991.33
2019-06-10T01:01:35.488Z,991.31
2019-06-10T01:02:35.477Z,991.30
2019-06-10T01:03:35.493Z,991.34
2019-06-10T01:04:35.472Z,991.42
2019-06-10T01:05:35.444Z,991.50
2019-06-10T01:06:35.434Z,991.53
2019-06-10T01:07:35.422Z,991.43
2019-06-10T01:08:35.437Z,991.38
2019-06-10T01:09:35.402Z,991.28
2019-06-10T01:10:35.398Z,991.08
2019-06-10T01:11:35.377Z,991.04
2019-06-10T01:12:35.369Z,991.06
2019-06-10T01:13:35.354Z,991.10
2019-06-10T01:14:35.385Z,991.20
2019-06-10T01:15:35.342Z,991.19
2019-06-10T01:16:35.324Z,991.26
2019-06-10T01:17:35.312Z,991.30
2019-06-10T01:18:38.505Z,991.29
2019-06-10T01:19:35.289Z,991.29
2019-06-10T01:20:35.326Z,991.20
2019-06-10T01:21:35.265Z,991.19
2019-06-10T01:22:35.255Z,991.16
2019-06-10T01:23:35.243Z,991.10
2019-06-10T01:24:35.231Z,991.18
2019-06-10T01:25:35.234Z,991.18
2019-06-10T01:26:35.238Z,991.18
2019-06-10T01:27:35.198Z,991.22
2019-06-10T01:28:35.188Z,991.22
2019-06-10T01:29:35.176Z,991.27
2019-06-10T01:30:35.175Z,991.29
2019-06-10T01:31:35.155Z,991.35
2019-06-10T01:32:35.199Z,991.33
2019-06-10T01:33:35.132Z,991.35
2019-06-10T01:34:35.121Z,991.42
2019-06-10T01:35:35.121Z,991.44
2019-06-10T01:36:35.100Z,991.50
2019-06-10T01:37:35.087Z,991.62
2019-06-10T01:38:35.103Z,991.72
2019-06-10T01:39:35.068Z,991.80
2019-06-10T01:40:35.067Z,991.86
2019-06-10T01:41:35.043Z,991.91
2019-06-10T01:42:35.033Z,991.91
2019-06-10T01:43:35.023Z,991.91
2019-06-10T01:44:35.030Z,991.86
2019-06-10T01:45:35.011Z,991.74
2019-06-10T01:46:34.988Z,991.77
2019-06-10T01:47:34.978Z,991.65
2019-06-10T01:48:43.976Z,991.59
2019-06-10T01:49:35.955Z,991.42
2019-06-10T01:50:35.003Z,991.28
2019-06-10T01:51:34.934Z,991.17
2019-06-10T01:52:34.922Z,991.09
2019-06-10T01:53:34.915Z,991.02
2019-06-10T01:54:34.900Z,990.98
2019-06-10T01:55:34.899Z,990.89
2019-06-10T01:56:34.942Z,990.86
2019-06-10T01:57:34.869Z,990.92
2019-06-10T01:58:34.858Z,990.97
2019-06-10T01:59:34.848Z,991.02
2019-06-10T02:00:34.863Z,991.07
2019-06-10T02:01:34.829Z,991.07
2019-06-10T02:02:35.341Z,991.08
2019-06-10T02:03:34.864Z,990.90
2019-06-10T02:04:34.789Z,990.79
2019-06-10T02:05:34.778Z,990.61
2019-06-10T02:06:34.777Z,990.64
2019-06-10T02:07:34.755Z,990.63
2019-06-10T02:08:34.744Z,990.56
2019-06-10T02:09:34.781Z,990.60
2019-06-10T02:10:34.725Z,990.61
2019-06-10T02:11:34.726Z,990.50
2019-06-10T02:12:34.703Z,990.50
2019-06-10T02:13:34.690Z,990.49
2019-06-10T02:14:34.687Z,990.43
2019-06-10T02:15:34.669Z,990.50
2019-06-10T02:16:34.702Z,990.49
2019-06-10T02:17:34.644Z,990.49
2019-06-10T02:18:34.634Z,990.48
2019-06-10T02:19:34.629Z,990.51
2019-06-10T02:20:34.613Z,990.50
2019-06-10T02:21:34.614Z,990.46
2019-06-10T02:22:34.603Z,990.43
2019-06-10T02:23:34.579Z,990.39
2019-06-10T02:24:34.567Z,990.25
2019-06-10T02:25:34.557Z,990.14
2019-06-10T02:26:34.559Z,990.10
2019-06-10T02:27:34.534Z,990.13
2019-06-10T02:28:34.543Z,990.20
2019-06-10T02:29:34.512Z,990.25
2019-06-10T02:30:41.715Z,990.23
2019-06-10T02:31:37.285Z,990.10
2019-06-10T02:32:37.607Z,990.09
2019-06-10T02:33:36.548Z,990.03
2019-06-10T02:34:42.859Z,990.04
2019-06-10T02:35:43.347Z,990.00
2019-06-10T02:36:36.722Z,989.94
2019-06-10T02:37:38.194Z,989.96
2019-06-10T02:38:39.321Z,989.90
2019-06-10T02:39:39.017Z,989.88
2019-06-10T02:40:36.556Z,989.93
2019-06-10T02:41:36.350Z,989.89
2019-06-10T02:42:35.869Z,989.95
2019-06-10T02:43:37.683Z,989.92
2019-06-10T02:44:37.570Z,989.93
2019-06-10T02:45:37.449Z,989.92
2019-06-10T02:46:36.174Z,989.93
2019-06-10T02:47:38.075Z,989.91
2019-06-10T02:48:35.417Z,989.88
2019-06-10T02:49:48.330Z,989.84
2019-06-10T02:50:36.412Z,989.81
2019-06-10T02:51:35.791Z,989.78
2019-06-10T02:52:38.546Z,989.76
2019-06-10T02:53:36.093Z,989.67
2019-06-10T02:54:35.952Z,989.64
2019-06-10T02:55:35.177Z,989.59
2019-06-10T02:56:36.297Z,989.50
2019-06-10T02:57:39.776Z,989.38
2019-06-10T02:58:38.970Z,989.34
2019-06-10T02:59:36.440Z,989.24
2019-06-10T03:00:43.167Z,989.17
2019-06-10T03:01:38.019Z,989.11
2019-06-10T03:02:36.364Z,989.10
2019-06-10T03:03:42.862Z,989.11
2019-06-10T03:04:37.710Z,989.13
2019-06-10T03:05:40.517Z,989.13
2019-06-10T03:06:39.829Z,989.20
2019-06-10T03:07:35.825Z,989.17
2019-06-10T03:08:36.325Z,989.18
2019-06-10T03:09:35.674Z,989.13
2019-06-10T03:10:37.168Z,989.18
2019-06-10T03:11:37.123Z,989.17
2019-06-10T03:12:34.042Z,989.18
2019-06-10T03:13:34.029Z,989.25
2019-06-10T03:14:34.008Z,989.24
2019-06-10T03:15:33.997Z,989.22
2019-06-10T03:16:34.015Z,989.25
2019-06-10T03:17:33.988Z,989.25
2019-06-10T03:18:33.967Z,989.25
2019-06-10T03:19:46.630Z,989.26
2019-06-10T03:20:34.941Z,989.29
2019-06-10T03:21:33.931Z,989.30
2019-06-10T03:22:33.971Z,989.33
2019-06-10T03:23:33.908Z,989.31
2019-06-10T03:24:33.900Z,989.31
2019-06-10T03:25:33.883Z,989.30
2019-06-10T03:26:33.877Z,989.29
2019-06-10T03:27:33.873Z,989.22
2019-06-10T03:28:33.874Z,989.14
2019-06-10T03:29:33.846Z,989.10
2019-06-10T03:30:47.299Z,989.08
2019-06-10T03:31:41.521Z,989.03
2019-06-10T03:32:40.617Z,989.02
2019-06-10T03:33:41.554Z,989.08
2019-06-10T03:34:41.464Z,989.07
2019-06-10T03:35:34.769Z,989.05
2019-06-10T03:36:33.762Z,989.04
2019-06-10T03:37:33.768Z,989.09
2019-06-10T03:38:36.920Z,989.15
2019-06-10T03:39:33.729Z,989.20
2019-06-10T03:40:33.741Z,989.32
2019-06-10T03:41:33.707Z,989.41
2019-06-10T03:42:33.713Z,989.62
2019-06-10T03:43:33.684Z,989.72
2019-06-10T03:44:33.671Z,989.87
2019-06-10T03:45:33.660Z,990.03
2019-06-10T03:46:33.676Z,990.14
2019-06-10T03:47:33.649Z,990.22
2019-06-10T03:48:33.632Z,990.26
2019-06-10T03:49:48.753Z,990.21
2019-06-10T03:50:34.606Z,990.14
2019-06-10T03:51:33.591Z,989.99
2019-06-10T03:52:33.633Z,989.86
2019-06-10T03:53:33.928Z,989.66
2019-06-10T03:54:33.558Z,989.66
2019-06-10T03:55:33.575Z,989.68
2019-06-10T03:56:33.537Z,989.70
2019-06-10T03:57:33.538Z,989.66
2019-06-10T03:58:33.539Z,989.61
2019-06-10T03:59:33.503Z,989.59
2019-06-10T04:00:36.794Z,989.66
2019-06-10T04:01:33.487Z,989.56
2019-06-10T04:02:33.481Z,989.62
2019-06-10T04:03:34.008Z,989.68
2019-06-10T04:04:33.481Z,989.72
2019-06-10T04:05:33.438Z,989.70
2019-06-10T04:06:33.834Z,989.73
2019-06-10T04:07:34.214Z,989.76
2019-06-10T04:08:33.408Z,989.69
2019-06-10T04:09:33.397Z,989.68
2019-06-10T04:10:33.421Z,989.69
2019-06-10T04:11:35.422Z,989.69
2019-06-10T04:12:33.368Z,989.71
2019-06-10T04:13:33.908Z,989.74
2019-06-10T04:14:33.335Z,989.69
2019-06-10T04:15:33.331Z,989.76
2019-06-10T04:16:33.364Z,989.73
2019-06-10T04:17:33.504Z,989.70
2019-06-10T04:18:33.292Z,989.66
2019-06-10T04:19:33.284Z,989.71
2019-06-10T04:20:33.272Z,989.78
2019-06-10T04:21:33.260Z,989.79
2019-06-10T04:22:33.322Z,989.80
2019-06-10T04:23:33.649Z,989.78
2019-06-10T04:24:33.227Z,989.87
2019-06-10T04:25:33.220Z,989.83
2019-06-10T04:26:33.209Z,989.74
2019-06-10T04:27:33.206Z,989.76
2019-06-10T04:28:33.852Z,989.75
2019-06-10T04:29:33.174Z,989.80
2019-06-10T04:30:33.164Z,989.87
2019-06-10T04:31:33.240Z,989.77
2019-06-10T04:32:33.152Z,989.69
2019-06-10T04:33:33.145Z,989.55
2019-06-10T04:34:33.461Z,989.55
2019-06-10T04:35:33.651Z,989.54
2019-06-10T04:36:33.491Z,989.55
2019-06-10T04:37:33.116Z,989.54
2019-06-10T04:38:33.090Z,989.46
2019-06-10T04:39:33.625Z,989.44
2019-06-10T04:40:33.076Z,989.41
2019-06-10T04:41:33.046Z,989.40
2019-06-10T04:42:33.142Z,989.39
2019-06-10T04:43:33.029Z,989.47
2019-06-10T04:44:33.109Z,989.54
2019-06-10T04:45:33.001Z,989.57
2019-06-10T04:46:33.032Z,989.72
2019-06-10T04:47:33.385Z,989.76
2019-06-10T04:48:33.038Z,989.84
2019-06-10T04:49:32.996Z,989.86
2019-06-10T04:50:41.933Z,989.86
2019-06-10T04:51:33.928Z,989.83
2019-06-10T04:52:33.165Z,989.82
2019-06-10T04:53:33.271Z,989.78
2019-06-10T04:54:33.380Z,989.81
2019-06-10T04:55:32.895Z,989.78
2019-06-10T04:56:33.499Z,989.87
2019-06-10T04:57:33.012Z,989.98
2019-06-10T04:58:33.639Z,990.06
2019-06-10T04:59:33.688Z,990.14
2019-06-10T05:00:33.234Z,990.27
2019-06-10T05:01:33.583Z,990.33
2019-06-10T05:02:33.123Z,990.39
2019-06-10T05:03:33.149Z,990.47
2019-06-10T05:04:33.002Z,990.53
2019-06-10T05:05:33.000Z,990.56
2019-06-10T05:06:33.013Z,990.53
2019-06-10T05:07:36.778Z,990.49
2019-06-10T05:08:33.771Z,990.42
2019-06-10T05:09:33.568Z,990.53
2019-06-10T05:10:33.326Z,990.58
2019-06-10T05:11:33.182Z,990.60
2019-06-10T05:12:32.879Z,990.66
2019-06-10T05:13:33.589Z,990.66
2019-06-10T05:14:33.427Z,990.63
2019-06-10T05:15:34.933Z,990.66
2019-06-10T05:16:35.716Z,990.64
2019-06-10T05:17:34.284Z,990.71
2019-06-10T05:18:33.195Z,990.75
2019-06-10T05:19:33.704Z,990.90
2019-06-10T05:20:50.998Z,991.01
2019-06-10T05:21:33.893Z,991.11
2019-06-10T05:22:32.896Z,991.06
2019-06-10T05:23:33.076Z,991.14
2019-06-10T05:24:34.298Z,991.24
2019-06-10T05:25:32.778Z,991.31
2019-06-10T05:26:33.639Z,991.32
2019-06-10T05:27:33.137Z,991.36
2019-06-10T05:28:34.145Z,991.35
2019-06-10T05:29:34.147Z,991.34
2019-06-10T05:30:34.114Z,991.39
2019-06-10T05:31:35.135Z,991.45
2019-06-10T05:32:33.409Z,991.46
2019-06-10T05:33:33.472Z,991.37
2019-06-10T05:34:34.784Z,991.40
2019-06-10T05:35:33.960Z,991.35
2019-06-10T05:36:34.609Z,991.40
2019-06-10T05:37:33.876Z,991.38
2019-06-10T05:38:35.192Z,991.36
2019-06-10T05:39:34.825Z,991.18
2019-06-10T05:40:34.081Z,991.10
2019-06-10T05:41:35.058Z,991.14
2019-06-10T05:42:35.841Z,991.09
2019-06-10T05:43:34.481Z,991.00
2019-06-10T05:44:34.433Z,990.91
2019-06-10T05:45:34.875Z,990.88
2019-06-10T05:46:34.440Z,990.84
2019-06-10T05:47:35.673Z,990.91
2019-06-10T05:48:33.598Z,990.79
2019-06-10T05:49:34.271Z,990.74
2019-06-10T05:50:33.569Z,990.71
2019-06-10T05:51:35.070Z,990.70
2019-06-10T05:52:33.798Z,990.71
2019-06-10T05:53:34.921Z,990.69
2019-06-10T05:54:34.055Z,990.69
2019-06-10T05:55:33.808Z,990.69
2019-06-10T05:56:34.236Z,990.67
2019-06-10T05:57:34.171Z,990.65
2019-06-10T05:58:34.489Z,990.70
2019-06-10T05:59:34.507Z,990.65
2019-06-10T06:00:34.027Z,990.65
2019-06-10T06:01:36.331Z,990.65
2019-06-10T06:02:35.420Z,990.65
2019-06-10T06:03:35.280Z,990.64
2019-06-10T06:04:33.047Z,990.60
2019-06-10T06:05:33.289Z,990.56
2019-06-10T06:06:34.066Z,990.53
2019-06-10T06:07:35.251Z,990.57
2019-06-10T06:08:34.020Z,990.51
2019-06-10T06:09:34.837Z,990.52
2019-06-10T06:10:34.394Z,990.59
2019-06-10T06:11:34.019Z,990.62
2019-06-10T06:12:34.556Z,990.61
2019-06-10T06:13:34.124Z,990.65
2019-06-10T06:14:34.255Z,990.62
2019-06-10T06:15:34.510Z,990.64
2019-06-10T06:16:33.080Z,990.55
2019-06-10T06:17:32.791Z,990.58
2019-06-10T06:18:34.364Z,990.48
2019-06-10T06:19:35.025Z,990.45
2019-06-10T06:20:35.454Z,990.43
2019-06-10T06:21:39.345Z,990.37
2019-06-10T06:22:35.522Z,990.32
2019-06-10T06:23:33.862Z,990.35
2019-06-10T06:24:33.945Z,990.37
2019-06-10T06:25:37.221Z,990.35
2019-06-10T06:26:36.478Z,990.34
2019-06-10T06:27:33.856Z,990.31
2019-06-10T06:28:33.973Z,990.30
2019-06-10T06:29:33.862Z,990.20
2019-06-10T06:30:34.510Z,990.14
2019-06-10T06:31:33.344Z,990.10
2019-06-10T06:32:33.706Z,990.14
2019-06-10T06:33:34.681Z,990.22
2019-06-10T06:34:33.683Z,990.25
2019-06-10T06:35:35.213Z,990.23
2019-06-10T06:36:34.705Z,990.23
2019-06-10T06:37:34.663Z,990.26
2019-06-10T06:38:34.034Z,990.19
2019-06-10T06:39:33.502Z,990.22
2019-06-10T06:40:34.293Z,990.18
2019-06-10T06:41:34.120Z,990.11
2019-06-10T06:42:33.609Z,990.11
2019-06-10T06:43:36.415Z,990.04
2019-06-10T06:44:35.764Z,990.06
2019-06-10T06:45:34.088Z,990.09
2019-06-10T06:46:33.084Z,989.98
2019-06-10T06:47:33.803Z,989.95
2019-06-10T06:48:35.449Z,989.92
2019-06-10T06:49:34.304Z,989.93
2019-06-10T06:50:34.366Z,989.90
2019-06-10T06:51:46.914Z,989.84
2019-06-10T06:53:04.935Z,989.84
2019-06-10T06:53:42.174Z,989.87
2019-06-10T06:54:33.422Z,989.82
2019-06-10T06:55:33.722Z,989.66
2019-06-10T06:56:34.519Z,989.68
2019-06-10T06:57:33.835Z,989.58
2019-06-10T06:58:33.475Z,989.57
2019-06-10T06:59:33.874Z,989.47
2019-06-10T07:00:48.950Z,989.53
2019-06-10T07:01:35.811Z,989.54
2019-06-10T07:02:34.191Z,989.50
2019-06-10T07:03:34.544Z,989.57
2019-06-10T07:04:33.929Z,989.53
2019-06-10T07:05:32.667Z,989.43
2019-06-10T07:06:33.787Z,989.43
2019-06-10T07:07:33.119Z,989.35
2019-06-10T07:08:33.308Z,989.35
2019-06-10T07:09:33.116Z,989.33
2019-06-10T07:10:33.188Z,989.28
2019-06-10T07:11:33.966Z,989.18
2019-06-10T07:12:33.746Z,989.17
2019-06-10T07:13:33.985Z,989.18
2019-06-10T07:14:35.234Z,989.15
2019-06-10T07:15:34.437Z,989.21
2019-06-10T07:16:34.123Z,989.21
2019-06-10T07:17:33.805Z,989.24
2019-06-10T07:18:33.748Z,989.27
2019-06-10T07:19:35.110Z,989.19
2019-06-10T07:20:33.767Z,989.16
2019-06-10T07:21:34.166Z,989.16
2019-06-10T07:22:35.167Z,989.17
2019-06-10T07:23:35.458Z,989.33
2019-06-10T07:24:34.049Z,989.41
2019-06-10T07:25:34.158Z,989.44
2019-06-10T07:26:34.120Z,989.48
2019-06-10T07:27:34.406Z,989.44
2019-06-10T07:28:34.252Z,989.49
2019-06-10T07:29:34.132Z,989.51
2019-06-10T07:30:34.327Z,989.46
2019-06-10T07:31:33.566Z,989.43
2019-06-10T07:32:34.166Z,989.41
2019-06-10T07:33:34.612Z,989.43
2019-06-10T07:34:33.896Z,989.37
2019-06-10T07:35:33.023Z,989.37
2019-06-10T07:36:33.920Z,989.33
2019-06-10T07:37:32.778Z,989.28
2019-06-10T07:38:33.869Z,989.27
2019-06-10T07:39:34.683Z,989.31
2019-06-10T07:40:33.426Z,989.43
2019-06-10T07:41:32.839Z,989.49
2019-06-10T07:42:33.255Z,989.54
2019-06-10T07:43:32.876Z,989.51
2019-06-10T07:44:32.993Z,989.58
2019-06-10T07:45:33.401Z,989.56
2019-06-10T07:46:33.110Z,989.59
2019-06-10T07:47:32.654Z,989.73
2019-06-10T07:48:33.507Z,989.75
2019-06-10T07:49:33.474Z,989.86
2019-06-10T07:50:33.357Z,989.82
2019-06-10T07:51:32.958Z,989.79
2019-06-10T07:52:33.159Z,989.70
2019-06-10T07:53:33.109Z,989.68
2019-06-10T07:54:33.255Z,989.52
2019-06-10T07:55:33.231Z,989.32
2019-06-10T07:56:36.870Z,989.08
2019-06-10T07:57:33.190Z,988.88
2019-06-10T07:58:33.293Z,988.70
2019-06-10T07:59:32.226Z,988.59
2019-06-10T08:00:33.240Z,988.51
2019-06-10T08:01:33.273Z,988.44
2019-06-10T08:02:32.311Z,988.45
2019-06-10T08:03:34.383Z,988.47
2019-06-10T08:04:33.162Z,988.50
2019-06-10T08:05:32.327Z,988.63
2019-06-10T08:06:33.089Z,988.53
2019-06-10T08:07:33.257Z,988.56
2019-06-10T08:08:32.974Z,988.60
2019-06-10T08:09:33.185Z,988.72
2019-06-10T08:10:32.818Z,988.81
2019-06-10T08:11:33.080Z,988.90
2019-06-10T08:12:32.525Z,988.85
2019-06-10T08:13:32.335Z,988.83
2019-06-10T08:14:32.984Z,988.81
2019-06-10T08:15:32.505Z,988.82
2019-06-10T08:16:32.754Z,988.74
2019-06-10T08:17:32.747Z,988.79
2019-06-10T08:18:38.465Z,988.84
2019-06-10T08:19:38.248Z,989.00
2019-06-10T08:20:32.617Z,989.03
2019-06-10T08:21:32.337Z,989.01
2019-06-10T08:22:35.107Z,988.97
2019-06-10T08:23:32.828Z,988.81
2019-06-10T08:24:32.948Z,989.05
2019-06-10T08:25:32.782Z,989.06
2019-06-10T08:26:32.440Z,989.03
2019-06-10T08:27:30.569Z,989.01
2019-06-10T08:28:32.960Z,989.02
2019-06-10T08:29:32.861Z,989.00
2019-06-10T08:30:32.778Z,988.87
2019-06-10T08:31:33.019Z,988.93
2019-06-10T08:32:33.307Z,988.89
2019-06-10T08:33:32.808Z,988.87
2019-06-10T08:34:32.803Z,988.80
2019-06-10T08:35:39.540Z,988.74
2019-06-10T08:36:33.320Z,988.66
2019-06-10T08:37:33.040Z,988.68
2019-06-10T08:38:32.687Z,988.83
2019-06-10T08:39:30.436Z,988.85
2019-06-10T08:40:32.555Z,988.94
2019-06-10T08:41:32.239Z,988.77
2019-06-10T08:42:32.429Z,988.85
2019-06-10T08:43:32.878Z,988.91
2019-06-10T08:44:32.609Z,988.97
2019-06-10T08:45:30.382Z,989.07
2019-06-10T08:46:32.753Z,989.16
2019-06-10T08:47:32.452Z,989.27
2019-06-10T08:48:32.726Z,989.31
2019-06-10T08:49:32.574Z,989.39
2019-06-10T08:50:33.471Z,989.45
2019-06-10T08:51:32.325Z,989.59
2019-06-10T08:52:44.253Z,989.62
2019-06-10T08:53:33.030Z,989.79
2019-06-10T08:54:32.447Z,989.80
2019-06-10T08:55:31.210Z,989.84
2019-06-10T08:56:32.567Z,989.89
2019-06-10T08:57:30.237Z,989.99
2019-06-10T08:58:30.256Z,990.05
2019-06-10T08:59:32.518Z,989.99
2019-06-10T09:00:30.214Z,990.03
2019-06-10T09:01:31.097Z,989.98
2019-06-10T09:02:31.139Z,989.97
2019-06-10T09:03:32.274Z,989.94
2019-06-10T09:04:30.186Z,989.90
2019-06-10T09:05:32.280Z,989.79
2019-06-10T09:06:30.139Z,989.81
2019-06-10T09:07:32.310Z,989.80
2019-06-10T09:08:32.381Z,989.79
2019-06-10T09:09:30.107Z,989.75
2019-06-10T09:10:30.134Z,989.65
2019-06-10T09:11:32.720Z,989.63
2019-06-10T09:12:35.844Z,989.52
2019-06-10T09:13:33.376Z,989.43
2019-06-10T09:14:32.446Z,989.32
2019-06-10T09:15:32.371Z,989.22
2019-06-10T09:16:32.377Z,989.04
2019-06-10T09:17:33.598Z,988.85
2019-06-10T09:18:30.007Z,988.72
2019-06-10T09:19:30.849Z,988.52
2019-06-10T09:20:30.001Z,988.43
2019-06-10T09:21:29.975Z,988.37
2019-06-10T09:22:32.570Z,988.20
2019-06-10T09:23:29.953Z,988.18
2019-06-10T09:24:29.955Z,988.09
2019-06-10T09:25:33.157Z,988.10
2019-06-10T09:26:29.920Z,988.06
2019-06-10T09:27:32.273Z,988.10
2019-06-10T09:28:29.916Z,988.00
2019-06-10T09:29:29.888Z,988.03
2019-06-10T09:30:29.907Z,987.97
2019-06-10T09:31:29.871Z,987.92
2019-06-10T09:32:32.312Z,987.88
2019-06-10T09:33:29.850Z,987.90
2019-06-10T09:34:32.845Z,987.78
2019-06-10T09:35:32.176Z,987.76
2019-06-10T09:36:29.823Z,987.74
2019-06-10T09:37:31.930Z,987.77
2019-06-10T09:38:29.828Z,987.82
2019-06-10T09:39:32.703Z,988.02
2019-06-10T09:40:33.184Z,988.02
2019-06-10T09:41:39.366Z,987.95
2019-06-10T09:42:33.189Z,987.79
2019-06-10T09:43:29.747Z,987.83
2019-06-10T09:44:29.726Z,987.80
2019-06-10T09:45:29.715Z,987.84
2019-06-10T09:46:29.745Z,987.88
2019-06-10T09:47:29.696Z,987.97
2019-06-10T09:48:29.688Z,987.93
2019-06-10T09:49:29.673Z,987.94
2019-06-10T09:50:29.661Z,987.92
2019-06-10T09:51:32.239Z,987.94
2019-06-10T09:52:29.664Z,987.95
2019-06-10T09:53:35.751Z,988.01
2019-06-10T09:54:30.617Z,988.06
2019-06-10T09:55:29.609Z,988.12
2019-06-10T09:56:29.608Z,988.13
2019-06-10T09:57:32.035Z,988.18
2019-06-10T09:58:29.603Z,988.26
2019-06-10T09:59:32.126Z,988.36
2019-06-10T10:00:29.553Z,988.43
2019-06-10T10:01:29.571Z,988.56
2019-06-10T10:02:29.531Z,988.70
2019-06-10T10:03:29.521Z,988.96
2019-06-10T10:04:32.079Z,989.12
2019-06-10T10:05:29.499Z,989.40
2019-06-10T10:06:29.522Z,989.68
2019-06-10T10:07:32.307Z,989.74
2019-06-10T10:08:29.473Z,989.81
2019-06-10T10:09:29.459Z,989.83
2019-06-10T10:10:29.505Z,989.86
2019-06-10T10:11:29.443Z,989.87
2019-06-10T10:12:29.425Z,989.83
2019-06-10T10:13:29.418Z,989.76
2019-06-10T10:14:29.402Z,989.60
2019-06-10T10:15:33.787Z,989.52
2019-06-10T10:16:29.444Z,989.28
2019-06-10T10:17:29.369Z,989.17
2019-06-10T10:18:29.365Z,989.18
2019-06-10T10:19:29.358Z,989.03
2019-06-10T10:20:29.336Z,988.93
2019-06-10T10:21:29.337Z,988.88
2019-06-10T10:22:29.361Z,988.77
2019-06-10T10:23:48.112Z,988.70
2019-06-10T10:24:30.312Z,988.67
2019-06-10T10:25:29.282Z,988.60
2019-06-10T10:26:29.286Z,988.59
2019-06-10T10:27:29.261Z,988.49
2019-06-10T10:28:29.311Z,988.49
2019-06-10T10:29:29.247Z,988.41
2019-06-10T10:30:29.230Z,988.36
2019-06-10T10:31:29.230Z,988.32
2019-06-10T10:32:29.208Z,988.28
2019-06-10T10:33:32.623Z,988.34
2019-06-10T10:34:29.194Z,988.39
2019-06-10T10:35:29.172Z,988.41
2019-06-10T10:36:29.174Z,988.45
2019-06-10T10:37:29.150Z,988.47
2019-06-10T10:38:29.164Z,988.54
2019-06-10T10:39:29.155Z,988.59
2019-06-10T10:40:29.167Z,988.61
2019-06-10T10:41:29.122Z,988.66
2019-06-10T10:42:41.820Z,988.72
2019-06-10T10:43:34.142Z,988.65
2019-06-10T10:44:30.075Z,988.78
2019-06-10T10:45:29.063Z,988.71
2019-06-10T10:46:29.113Z,988.73
2019-06-10T10:47:29.054Z,988.67
2019-06-10T10:48:29.038Z,988.70
2019-06-10T10:49:29.019Z,988.66
2019-06-10T10:50:29.008Z,988.61
2019-06-10T10:51:28.998Z,988.57
2019-06-10T10:52:29.043Z,988.45
2019-06-10T10:53:28.976Z,988.36
2019-06-10T10:54:33.967Z,988.38
2019-06-10T10:55:29.954Z,988.40
2019-06-10T10:56:28.949Z,988.38
2019-06-10T10:57:28.945Z,988.41
2019-06-10T10:58:28.959Z,988.38
2019-06-10T10:59:28.911Z,988.37
2019-06-10T11:00:32.828Z,988.36
2019-06-10T11:01:29.893Z,988.39
2019-06-10T11:02:28.892Z,988.39
2019-06-10T11:03:28.872Z,988.31
2019-06-10T11:04:28.898Z,988.24
2019-06-10T11:05:28.845Z,988.22
2019-06-10T11:06:28.836Z,988.20
2019-06-10T11:07:28.836Z,988.10
2019-06-10T11:08:28.813Z,988.06
2019-06-10T11:09:28.801Z,988.00
2019-06-10T11:10:28.818Z,987.83
2019-06-10T11:11:28.783Z,987.84
2019-06-10T11:12:28.783Z,987.83
2019-06-10T11:13:28.761Z,987.87
2019-06-10T11:14:28.749Z,987.79
2019-06-10T11:15:28.736Z,987.78
2019-06-10T11:16:28.749Z,987.78
2019-06-10T11:17:28.730Z,987.70
2019-06-10T11:18:28.709Z,987.63
2019-06-10T11:19:28.693Z,987.55
2019-06-10T11:20:28.683Z,987.52
2019-06-10T11:21:28.673Z,987.56
2019-06-10T11:22:28.695Z,987.65
2019-06-10T11:23:28.651Z,987.69
2019-06-10T11:24:36.425Z,987.80
2019-06-10T11:25:29.627Z,987.87
2019-06-10T11:26:28.620Z,987.92
2019-06-10T11:27:28.619Z,988.02
2019-06-10T11:28:28.633Z,988.17
2019-06-10T11:29:28.587Z,988.29
2019-06-10T11:30:28.579Z,988.49
2019-06-10T11:31:28.565Z,988.74
2019-06-10T11:32:28.563Z,988.87
2019-06-10T11:33:28.576Z,988.95
2019-06-10T11:34:29.043Z,989.01
2019-06-10T11:35:28.521Z,989.01
2019-06-10T11:36:28.508Z,989.01
2019-06-10T11:37:28.509Z,989.01
2019-06-10T11:38:28.487Z,989.06
2019-06-10T11:39:28.509Z,989.11
2019-06-10T11:40:28.465Z,989.17
2019-06-10T11:41:28.458Z,989.25
2019-06-10T11:42:28.480Z,989.19
2019-06-10T11:43:28.451Z,989.16
2019-06-10T11:44:28.468Z,989.13
2019-06-10T11:45:29.127Z,989.01
2019-06-10T11:46:28.405Z,988.92
2019-06-10T11:47:28.405Z,988.91
2019-06-10T11:48:28.381Z,988.94
2019-06-10T11:49:28.390Z,988.94
2019-06-10T11:50:28.358Z,988.92
2019-06-10T11:51:28.376Z,988.93
2019-06-10T11:52:28.347Z,988.86
2019-06-10T11:53:28.875Z,988.80
2019-06-10T11:54:28.311Z,988.71
2019-06-10T11:55:28.300Z,988.71
2019-06-10T11:56:28.290Z,988.70
2019-06-10T11:57:28.362Z,988.78
2019-06-10T11:58:28.269Z,988.85
2019-06-10T11:59:28.258Z,988.92
2019-06-10T12:00:28.247Z,988.99
2019-06-10T12:01:28.239Z,989.02
2019-06-10T12:02:28.238Z,989.03
2019-06-10T12:03:28.239Z,989.03
2019-06-10T12:04:28.220Z,989.03
2019-06-10T12:05:28.190Z,989.00
2019-06-10T12:06:28.183Z,988.94
2019-06-10T12:07:28.208Z,988.87
2019-06-10T12:08:28.167Z,988.89
2019-06-10T12:09:28.206Z,988.85
2019-06-10T12:10:28.137Z,988.86
2019-06-10T12:11:28.127Z,988.85
2019-06-10T12:12:28.119Z,988.76
2019-06-10T12:13:28.116Z,988.75
2019-06-10T12:14:28.093Z,988.66
2019-06-10T12:15:28.112Z,988.64
2019-06-10T12:17:41.567Z,988.71
2019-06-10T12:18:29.065Z,988.77
2019-06-10T12:19:28.054Z,988.74
2019-06-10T12:20:28.619Z,988.75
2019-06-10T12:21:28.045Z,988.70
2019-06-10T12:22:28.009Z,988.71
2019-06-10T12:23:28.006Z,988.64
2019-06-10T12:24:27.986Z,988.65
2019-06-10T12:25:35.552Z,988.64
2019-06-10T12:26:28.961Z,988.67
2019-06-10T12:27:27.974Z,988.66
2019-06-10T12:28:27.952Z,988.65
2019-06-10T12:29:27.929Z,988.62